Time;durP1;ratioP1;P1;durP2;ratioP2;P2;SDS_P1;SDS_P2;PMS_P1;PMS_P2;Temp;Humidity;BMP_temperature;BMP_pressure;BME280_temperature;BME280_humidity;BME280_pressure;Samples;Min_cycle;Max_cycle;Signal;HPM_P1;HPM_P2
2022/08/01 00:01:53;;;;;;;4.22;3.50;;;23.40;72.80;;;;;;5008683;28;20106;-66
2022/08/01 00:04:19;;;;;;;5.80;3.58;;;23.50;72.90;;;;;;5008975;28;20718;-66
2022/08/01 00:06:44;;;;;;;4.25;3.30;;;23.50;73.60;;;;;;5011657;28;20153;-66
2022/08/01 00:09:10;;;;;;;4.57;3.17;;;23.50;73.20;;;;;;5009339;28;20076;-66
2022/08/01 00:11:36;;;;;;;6.57;3.60;;;23.40;73.40;;;;;;5011102;28;20026;-65
2022/08/01 00:14:01;;;;;;;5.03;3.72;;;23.40;73.80;;;;;;5009794;28;20173;-66
2022/08/01 00:16:27;;;;;;;5.13;3.30;;;23.40;73.80;;;;;;5011534;28;20636;-66
2022/08/01 00:18:53;;;;;;;6.10;3.55;;;23.40;73.90;;;;;;5008919;28;20038;-66
2022/08/01 00:21:20;;;;;;;7.03;3.60;;;23.40;74.40;;;;;;5010660;28;20381;-66
2022/08/01 00:23:45;;;;;;;4.88;3.63;;;23.40;74.50;;;;;;5009355;28;20041;-66
2022/08/01 00:26:14;;;;;;;5.43;3.80;;;23.30;75.10;;;;;;5010061;28;20030;-66
2022/08/01 00:28:40;;;;;;;7.78;3.85;;;23.30;75.80;;;;;;5009871;28;20065;-66
2022/08/01 00:31:07;;;;;;;5.45;3.38;;;23.30;76.00;;;;;;5011551;28;20029;-66
2022/08/01 00:33:32;;;;;;;4.60;3.75;;;23.20;76.40;;;;;;5009801;28;20026;-66
2022/08/01 00:35:58;;;;;;;5.15;3.42;;;23.20;76.80;;;;;;5011815;28;20033;-66
2022/08/01 00:38:23;;;;;;;5.38;3.53;;;23.20;77.10;;;;;;5012213;28;20304;-66
2022/08/01 00:40:49;;;;;;;3.78;3.30;;;23.20;77.60;;;;;;5014910;28;20026;-66
2022/08/01 00:43:15;;;;;;;4.65;3.58;;;23.10;78.10;;;;;;5011452;28;20026;-66
2022/08/01 00:45:41;;;;;;;4.68;3.50;;;23.10;78.30;;;;;;5014306;28;20034;-66
2022/08/01 00:48:08;;;;;;;4.93;3.40;;;23.10;78.80;;;;;;5012329;28;20370;-66
2022/08/01 00:50:33;;;;;;;5.95;4.43;;;23.00;78.90;;;;;;5013936;28;20106;-66
2022/08/01 00:53:00;;;;;;;6.70;3.75;;;23.10;79.50;;;;;;5012138;28;20121;-66
2022/08/01 00:55:27;;;;;;;5.65;4.18;;;23.00;80.20;;;;;;5014317;28;20029;-66
2022/08/01 00:57:53;;;;;;;4.35;3.67;;;22.90;80.70;;;;;;5011448;28;20038;-66
2022/08/01 01:00:19;;;;;;;4.70;4.10;;;22.90;81.00;;;;;;5013956;28;20056;-66
2022/08/01 01:02:44;;;;;;;4.00;3.60;;;22.90;81.90;;;;;;5012761;28;20026;-67
2022/08/01 01:05:10;;;;;;;4.80;3.72;;;22.80;82.30;;;;;;5013174;28;20049;-66
2022/08/01 01:07:50;;;;;;;5.18;3.97;;;22.80;82.30;;;;;;5013046;28;20022;-66
2022/08/01 01:10:40;;;;;;;5.10;3.70;;;22.80;83.20;;;;;;5013745;28;20030;-66
2022/08/01 01:13:12;;;;;;;3.90;3.45;;;22.70;83.70;;;;;;5011835;28;20038;-66
2022/08/01 01:15:46;;;;;;;4.32;3.92;;;22.60;83.70;;;;;;5011481;28;20080;-66
2022/08/01 01:18:19;;;;;;;7.13;3.80;;;22.70;84.30;;;;;;5011995;28;20061;-66
2022/08/01 01:20:58;;;;;;;4.70;4.20;;;22.70;84.40;;;;;;5013747;28;20026;-66
2022/08/01 01:23:55;;;;;;;5.47;4.22;;;22.70;84.50;;;;;;5011293;28;20493;-66
2022/08/01 01:26:21;;;;;;;5.40;4.05;;;22.70;84.50;;;;;;5011876;28;20029;-67
2022/08/01 01:29:14;;;;;;;7.25;3.85;;;22.80;84.70;;;;;;5012598;28;20041;-67
2022/08/01 01:32:02;;;;;;;4.22;3.65;;;22.80;84.80;;;;;;5012789;28;20042;-66
2022/08/01 01:34:31;;;;;;;7.70;3.80;;;22.80;84.90;;;;;;4992068;28;20084;-66
2022/08/01 01:37:00;;;;;;;4.30;3.88;;;22.80;85.50;;;;;;5011695;28;20030;-67
2022/08/01 01:39:28;;;;;;;8.45;3.60;;;22.80;85.70;;;;;;5013184;28;20032;-67
2022/08/01 01:41:55;;;;;;;5.20;3.80;;;22.90;85.90;;;;;;5012205;28;20037;-67
2022/08/01 01:44:21;;;;;;;4.57;3.80;;;22.90;86.10;;;;;;5012127;28;20040;-67
2022/08/01 01:46:49;;;;;;;4.32;3.60;;;22.90;86.10;;;;;;5012592;28;20034;-67
2022/08/01 01:49:16;;;;;;;5.15;4.03;;;22.90;86.40;;;;;;5009327;28;20033;-67
2022/08/01 01:51:44;;;;;;;4.40;3.58;;;22.90;86.50;;;;;;5011922;28;20057;-66
2022/08/01 01:54:10;;;;;;;5.60;3.63;;;22.90;86.70;;;;;;5018575;28;20033;-66
2022/08/01 01:56:48;;;;;;;4.60;3.65;;;22.90;86.70;;;;;;5013404;28;20056;-66
2022/08/01 01:59:19;;;;;;;5.65;3.90;;;22.90;86.80;;;;;;5011225;28;20358;-65
2022/08/01 02:01:49;;;;;;;4.60;3.67;;;22.90;87.00;;;;;;5010957;28;20030;-66
2022/08/01 02:04:16;;;;;;;5.82;4.10;;;22.90;87.00;;;;;;5010791;28;20381;-65
2022/08/01 02:06:46;;;;;;;5.78;4.00;;;22.90;87.00;;;;;;5012325;28;20539;-65
2022/08/01 02:09:14;;;;;;;4.68;3.95;;;22.90;87.10;;;;;;5011667;28;20540;-65
2022/08/01 02:11:40;;;;;;;5.55;4.25;;;22.90;87.20;;;;;;5011347;28;20120;-65
2022/08/01 02:14:08;;;;;;;5.35;3.95;;;22.80;87.30;;;;;;5009973;28;20038;-65
2022/08/01 02:16:40;;;;;;;5.32;4.07;;;22.80;87.60;;;;;;5010119;28;20026;-65
2022/08/01 02:19:06;;;;;;;4.40;3.78;;;22.80;87.80;;;;;;5010019;28;20057;-65
2022/08/01 02:21:46;;;;;;;5.70;3.97;;;22.70;87.80;;;;;;5011014;28;20058;-65
2022/08/01 02:24:21;;;;;;;4.93;3.55;;;22.70;88.00;;;;;;5019356;28;20084;-65
2022/08/01 02:26:50;;;;;;;5.85;3.75;;;22.70;88.20;;;;;;5018366;28;20034;-65
2022/08/01 02:29:22;;;;;;;5.05;3.70;;;22.70;88.40;;;;;;5009771;28;20030;-65
2022/08/01 02:31:51;;;;;;;5.47;3.40;;;22.60;88.70;;;;;;4992974;28;20049;-65
2022/08/01 02:34:18;;;;;;;4.03;3.63;;;22.60;88.80;;;;;;5010884;28;20160;-64
2022/08/01 02:36:46;;;;;;;5.35;4.05;;;22.60;89.10;;;;;;5011510;28;20026;-65
2022/08/01 02:39:15;;;;;;;4.53;3.55;;;22.60;89.40;;;;;;5009137;28;20095;-66
2022/08/01 02:41:44;;;;;;;6.93;4.07;;;22.60;89.70;;;;;;5010265;28;20030;-65
2022/08/01 02:44:15;;;;;;;5.30;4.40;;;22.50;90.00;;;;;;5010500;28;20179;-70
2022/08/01 02:46:48;;;;;;;4.53;3.90;;;22.40;90.10;;;;;;5012285;28;20436;-75
2022/08/01 02:49:16;;;;;;;4.57;3.95;;;22.40;90.20;;;;;;5010059;28;20030;-75
2022/08/01 02:51:45;;;;;;;5.07;3.80;;;22.40;90.40;;;;;;5011789;28;20022;-74
2022/08/01 02:54:11;;;;;;;4.72;3.50;;;22.40;90.60;;;;;;5010587;28;20528;-70
2022/08/01 02:56:40;;;;;;;6.78;3.95;;;22.40;90.70;;;;;;5012093;28;20026;-73
2022/08/01 02:59:20;;;;;;;5.00;3.88;;;22.40;90.80;;;;;;5010168;28;20030;-73
2022/08/01 03:01:47;;;;;;;5.55;3.80;;;22.40;91.00;;;;;;5011159;28;20026;-73
2022/08/01 03:04:14;;;;;;;6.00;3.90;;;22.40;91.10;;;;;;5010979;28;20498;-74
2022/08/01 03:06:40;;;;;;;5.43;4.15;;;22.40;91.10;;;;;;5010662;28;20065;-70
2022/08/01 03:09:08;;;;;;;4.95;3.97;;;22.40;91.10;;;;;;5010524;28;20037;-70
2022/08/01 03:11:36;;;;;;;3.67;3.38;;;22.40;91.20;;;;;;5011224;28;20495;-67
2022/08/01 03:14:04;;;;;;;4.55;3.78;;;22.40;91.20;;;;;;5008529;28;20392;-69
2022/08/01 03:16:33;;;;;;;5.13;3.47;;;22.40;91.30;;;;;;5012017;28;20026;-69
2022/08/01 03:19:00;;;;;;;4.35;3.95;;;22.40;91.30;;;;;;5010621;28;20030;-69
2022/08/01 03:21:27;;;;;;;5.28;3.95;;;22.40;91.40;;;;;;5010517;28;20032;-69
2022/08/01 03:23:56;;;;;;;5.32;3.67;;;22.40;91.40;;;;;;5010492;28;20358;-67
2022/08/01 03:26:28;;;;;;;4.40;3.70;;;22.40;91.50;;;;;;5011393;28;20083;-67
2022/08/01 03:28:58;;;;;;;5.88;4.00;;;22.50;91.50;;;;;;5010589;28;20037;-67
2022/08/01 03:31:26;;;;;;;5.53;3.90;;;22.40;91.60;;;;;;5011571;28;20453;-67
2022/08/01 03:33:52;;;;;;;4.15;3.60;;;22.40;91.60;;;;;;5008213;28;20444;-67
2022/08/01 03:36:26;;;;;;;4.22;3.70;;;22.40;91.70;;;;;;4995574;28;20030;-67
2022/08/01 03:38:55;;;;;;;;;;;22.40;91.80;;;;;;5010359;28;20378;-67
2022/08/01 03:41:26;;;;;;;5.57;4.00;;;22.40;91.20;;;;;;5010708;28;19914;-67
2022/08/01 03:44:15;;;;;;;5.07;3.80;;;22.40;91.80;;;;;;5010175;28;20034;-67
2022/08/01 03:46:51;;;;;;;4.15;3.60;;;22.30;91.90;;;;;;5011703;28;20038;-67
2022/08/01 03:49:22;;;;;;;4.40;4.00;;;22.30;92.00;;;;;;5010005;28;20473;-67
2022/08/01 03:51:49;;;;;;;4.90;4.07;;;22.30;92.10;;;;;;5011031;28;20104;-67
2022/08/01 03:54:20;;;;;;;6.00;3.90;;;22.30;92.20;;;;;;5009918;28;20033;-66
2022/08/01 03:56:48;;;;;;;4.35;3.65;;;22.30;92.30;;;;;;5010812;28;20030;-66
2022/08/01 03:59:16;;;;;;;5.50;3.70;;;22.30;92.40;;;;;;5008947;28;20539;-66
2022/08/01 04:01:44;;;;;;;6.38;4.20;;;22.30;92.50;;;;;;5009770;28;20030;-66
2022/08/01 04:04:10;;;;;;;7.63;4.00;;;22.30;92.50;;;;;;5009296;28;20125;-67
2022/08/01 04:06:40;;;;;;;4.05;3.60;;;22.40;92.50;;;;;;5010289;28;20153;-66
2022/08/01 04:09:08;;;;;;;5.85;4.05;;;22.30;92.70;;;;;;5008841;28;20108;-66
2022/08/01 04:11:33;;;;;;;6.05;4.10;;;22.30;92.80;;;;;;5012173;28;20045;-66
2022/08/01 04:13:59;;;;;;;4.80;3.90;;;22.30;92.80;;;;;;5013600;28;20042;-66
2022/08/01 04:16:25;;;;;;;5.30;4.38;;;22.40;92.90;;;;;;5014905;28;20018;-66
2022/08/01 04:18:51;;;;;;;6.75;4.80;;;22.40;92.90;;;;;;5012509;28;20034;-66
2022/08/01 04:21:27;;;;;;;6.82;4.72;;;22.40;93.00;;;;;;5012538;28;20036;-66
2022/08/01 04:23:57;;;;;;;10.52;5.13;;;22.40;93.00;;;;;;5014010;28;20037;-66
2022/08/01 04:26:25;;;;;;;6.25;5.35;;;22.40;93.10;;;;;;5014104;28;20026;-66
2022/08/01 04:28:54;;;;;;;8.95;6.10;;;22.50;93.10;;;;;;5012554;28;20567;-66
2022/08/01 04:31:22;;;;;;;7.47;5.85;;;22.50;93.30;;;;;;5013710;28;20478;-66
2022/08/01 04:33:50;;;;;;;9.10;5.90;;;22.40;93.40;;;;;;5012544;28;20034;-67
2022/08/01 04:36:19;;;;;;;11.40;6.03;;;22.50;93.50;;;;;;5013932;28;20026;-66
2022/08/01 04:38:47;;;;;;;6.50;5.75;;;22.40;93.60;;;;;;5013345;28;20052;-66
2022/08/01 04:41:14;;;;;;;8.73;5.88;;;22.50;93.70;;;;;;5013562;28;20057;-66
2022/08/01 04:43:41;;;;;;;6.82;5.28;;;22.50;93.70;;;;;;5013045;28;20389;-66
2022/08/01 04:46:07;;;;;;;6.57;5.00;;;22.50;93.70;;;;;;5014479;28;20385;-66
2022/08/01 04:48:36;;;;;;;6.25;5.30;;;22.50;93.80;;;;;;5013186;28;20065;-66
2022/08/01 04:51:03;;;;;;;6.35;5.25;;;22.60;93.80;;;;;;5013547;28;20112;-70
2022/08/01 04:53:28;;;;;;;6.32;5.43;;;22.60;93.80;;;;;;5012949;28;20473;-66
2022/08/01 04:55:54;;;;;;;7.38;5.68;;;22.60;93.90;;;;;;5014424;28;20112;-66
2022/08/01 04:58:19;;;;;;;8.70;5.50;;;22.60;94.10;;;;;;5026317;28;20073;-66
2022/08/01 05:00:48;;;;;;;6.68;5.53;;;22.60;94.10;;;;;;5009382;28;20026;-66
2022/08/01 05:03:13;;;;;;;8.85;5.93;;;22.60;94.20;;;;;;5012448;28;20105;-66
2022/08/01 05:05:39;;;;;;;8.75;6.68;;;22.60;94.30;;;;;;5013341;28;20128;-66
2022/08/01 05:08:05;;;;;;;7.82;5.97;;;22.50;94.30;;;;;;5013015;28;20112;-66
2022/08/01 05:10:31;;;;;;;8.63;6.05;;;22.50;94.40;;;;;;5013319;28;20049;-66
2022/08/01 05:12:57;;;;;;;7.55;6.07;;;22.50;94.50;;;;;;5013241;28;20505;-66
2022/08/01 05:15:22;;;;;;;8.38;5.68;;;22.50;94.50;;;;;;5012943;28;20022;-66
2022/08/01 05:17:48;;;;;;;8.18;6.43;;;22.50;94.60;;;;;;5012658;28;20072;-66
2022/08/01 05:20:13;;;;;;;9.40;6.53;;;22.50;94.70;;;;;;5013083;28;20026;-66
2022/08/01 05:22:40;;;;;;;9.48;7.18;;;22.50;94.70;;;;;;5011110;28;20366;-67
2022/08/01 05:25:09;;;;;;;7.13;5.93;;;22.60;94.80;;;;;;5014106;28;20036;-66
2022/08/01 05:27:40;;;;;;;8.65;7.68;;;22.60;95.10;;;;;;5011672;28;20026;-66
2022/08/01 05:30:08;;;;;;;8.27;6.10;;;22.50;95.00;;;;;;5011934;28;20493;-66
2022/08/01 05:32:34;;;;;;;9.20;6.68;;;22.50;95.00;;;;;;5011220;28;20064;-66
2022/08/01 05:34:59;;;;;;;6.60;5.85;;;22.50;95.10;;;;;;5012973;28;20068;-66
2022/08/01 05:37:25;;;;;;;9.20;6.50;;;22.50;95.10;;;;;;5011487;28;20032;-67
2022/08/01 05:39:51;;;;;;;8.43;6.28;;;22.50;95.10;;;;;;5011367;28;20033;-67
2022/08/01 05:42:16;;;;;;;9.70;7.38;;;22.60;95.20;;;;;;5011153;28;20469;-67
2022/08/01 05:44:42;;;;;;;8.35;6.63;;;22.60;95.30;;;;;;5012434;28;20401;-67
2022/08/01 05:47:07;;;;;;;8.88;5.97;;;22.50;95.50;;;;;;5011873;28;20123;-66
2022/08/01 05:49:33;;;;;;;7.47;5.28;;;22.50;95.50;;;;;;5012169;28;20088;-66
2022/08/01 05:52:00;;;;;;;7.32;5.63;;;22.50;95.60;;;;;;5012182;28;20444;-67
2022/08/01 05:54:29;;;;;;;7.68;4.90;;;22.60;95.50;;;;;;5003344;28;20026;-65
2022/08/01 05:56:59;;;;;;;8.55;5.60;;;22.60;95.50;;;;;;5011963;28;20493;-66
2022/08/01 05:59:25;;;;;;;6.70;5.38;;;22.60;95.70;;;;;;5010821;28;20064;-66
2022/08/01 06:01:50;;;;;;;6.85;5.60;;;22.60;95.70;;;;;;5009139;28;20026;-67
2022/08/01 06:04:16;;;;;;;7.25;5.60;;;22.70;95.80;;;;;;5010734;28;20075;-67
2022/08/01 06:06:44;;;;;;;6.93;5.40;;;22.70;95.70;;;;;;5011258;28;20438;-67
2022/08/01 06:09:10;;;;;;;5.25;4.75;;;22.70;95.70;;;;;;5011509;28;20109;-66
2022/08/01 06:11:35;;;;;;;5.97;5.05;;;22.70;95.80;;;;;;5012968;28;20073;-66
2022/08/01 06:14:01;;;;;;;4.97;4.47;;;22.70;95.90;;;;;;5011771;28;20038;-67
2022/08/01 06:16:27;;;;;;;6.50;5.65;;;22.80;95.90;;;;;;5012492;28;20019;-66
2022/08/01 06:18:53;;;;;;;5.88;4.93;;;22.80;95.90;;;;;;5010093;28;20029;-66
2022/08/01 06:21:18;;;;;;;5.75;4.45;;;22.80;95.90;;;;;;5011088;28;20037;-66
2022/08/01 06:23:44;;;;;;;6.18;4.65;;;22.90;95.80;;;;;;5011741;28;20033;-67
2022/08/01 06:26:10;;;;;;;7.75;5.03;;;22.90;95.70;;;;;;5012515;28;20037;-67
2022/08/01 06:28:36;;;;;;;6.25;5.22;;;22.90;95.70;;;;;;5010651;28;20482;-67
2022/08/01 06:31:01;;;;;;;6.38;5.13;;;22.80;95.70;;;;;;5011101;28;20030;-67
2022/08/01 06:33:27;;;;;;;7.85;5.57;;;22.80;95.70;;;;;;5010976;28;20389;-67
2022/08/01 06:35:53;;;;;;;7.07;5.55;;;22.80;96.00;;;;;;5011117;28;20034;-67
2022/08/01 06:38:19;;;;;;;5.93;5.03;;;22.80;96.00;;;;;;5007903;28;20037;-67
2022/08/01 06:40:44;;;;;;;5.65;4.63;;;22.80;96.10;;;;;;5008103;28;20057;-67
2022/08/01 06:43:11;;;;;;;7.30;4.25;;;22.80;96.20;;;;;;5011206;28;20366;-67
2022/08/01 06:45:38;;;;;;;7.78;4.97;;;22.80;96.20;;;;;;5010867;28;20061;-66
2022/08/01 06:48:04;;;;;;;5.82;4.18;;;22.80;96.20;;;;;;5007022;28;20133;-66
2022/08/01 06:50:30;;;;;;;4.72;3.53;;;22.80;96.40;;;;;;5010697;28;20073;-67
2022/08/01 06:52:56;;;;;;;6.80;3.53;;;22.90;96.20;;;;;;5010480;28;20061;-67
2022/08/01 06:55:21;;;;;;;4.68;3.47;;;23.00;96.10;;;;;;5008780;28;20475;-67
2022/08/01 06:57:51;;;;;;;4.30;3.10;;;23.00;96.00;;;;;;5009590;28;20038;-67
2022/08/01 07:00:22;;;;;;;5.00;2.97;;;23.00;96.10;;;;;;5011607;28;20168;-67
2022/08/01 07:02:52;;;;;;;3.92;2.40;;;23.10;96.00;;;;;;5010436;28;20062;-67
2022/08/01 07:05:18;;;;;;;4.07;2.88;;;23.30;95.90;;;;;;5010803;28;20085;-67
2022/08/01 07:07:44;;;;;;;4.07;2.75;;;23.40;95.60;;;;;;5009252;28;20034;-67
2022/08/01 07:10:10;;;;;;;3.88;2.50;;;23.50;95.40;;;;;;5009909;28;20022;-67
2022/08/01 07:12:37;;;;;;;2.75;2.40;;;23.50;95.10;;;;;;5009460;28;20030;-66
2022/08/01 07:15:08;;;;;;;3.45;2.42;;;23.60;95.10;;;;;;5012009;28;20053;-67
2022/08/01 07:17:41;;;;;;;2.88;2.30;;;23.60;95.20;;;;;;5010363;28;20033;-66
2022/08/01 07:20:09;;;;;;;4.65;2.28;;;23.60;94.80;;;;;;5010282;28;20026;-66
2022/08/01 07:22:35;;;;;;;4.47;2.30;;;23.60;94.70;;;;;;5009038;28;20040;-65
2022/08/01 07:25:02;;;;;;;6.43;2.55;;;23.60;94.60;;;;;;5009367;28;20034;-65
2022/08/01 07:27:28;;;;;;;4.63;2.38;;;23.60;95.00;;;;;;5011284;28;20084;-66
2022/08/01 07:29:53;;;;;;;3.00;2.33;;;23.60;94.70;;;;;;5011375;28;20033;-68
2022/08/01 07:32:19;;;;;;;4.82;2.78;;;23.60;94.50;;;;;;5007860;28;20109;-66
2022/08/01 07:34:44;;;;;;;7.45;3.70;;;23.60;94.60;;;;;;5010424;28;20107;-65
2022/08/01 07:37:12;;;;;;;4.15;2.67;;;23.60;94.50;;;;;;5008534;28;22149;-65
2022/08/01 07:39:38;;;;;;;4.05;2.63;;;23.60;94.40;;;;;;5009985;28;20030;-66
2022/08/01 07:42:03;;;;;;;6.72;2.92;;;23.50;94.40;;;;;;5007444;28;20036;-66
2022/08/01 07:44:29;;;;;;;3.92;2.90;;;23.50;94.50;;;;;;5004768;28;20037;-66
2022/08/01 07:46:54;;;;;;;5.90;2.53;;;23.50;94.60;;;;;;5013954;28;20029;-66
2022/08/01 07:49:21;;;;;;;3.50;2.70;;;23.40;94.60;;;;;;5012483;28;20026;-66
2022/08/01 07:51:47;;;;;;;4.82;2.92;;;23.50;94.70;;;;;;5006736;28;20042;-65
2022/08/01 07:54:13;;;;;;;4.13;2.38;;;23.40;94.70;;;;;;5012065;28;20022;-66
2022/08/01 07:56:38;;;;;;;2.95;2.33;;;23.40;94.70;;;;;;5009169;28;20052;-67
2022/08/01 07:59:04;;;;;;;2.95;2.50;;;23.40;94.60;;;;;;5008222;28;20049;-67
2022/08/01 08:01:29;;;;;;;4.50;3.53;;;23.50;94.50;;;;;;5014572;28;20010;-67
2022/08/01 08:03:55;;;;;;;3.42;2.67;;;23.60;94.30;;;;;;5014634;28;20108;-65
2022/08/01 08:06:21;;;;;;;3.90;2.97;;;23.60;94.40;;;;;;5013549;28;20045;-65
2022/08/01 08:08:46;;;;;;;5.03;2.92;;;23.60;94.30;;;;;;5013342;28;20034;-65
2022/08/01 08:11:12;;;;;;;4.55;3.17;;;23.60;94.10;;;;;;5011656;28;20437;-66
2022/08/01 08:13:38;;;;;;;4.35;3.28;;;23.50;94.00;;;;;;5007797;28;20037;-66
2022/08/01 08:16:03;;;;;;;7.00;3.17;;;23.50;94.00;;;;;;5014898;28;20315;-66
2022/08/01 08:18:29;;;;;;;4.97;3.75;;;23.40;94.00;;;;;;5009098;28;20481;-65
2022/08/01 08:20:54;;;;;;;4.50;3.72;;;23.40;94.00;;;;;;5008560;28;20045;-65
2022/08/01 08:26:05;;;;;;;4.30;3.83;;;23.30;94.00;;;;;;5003627;28;20030;-65
2022/08/01 08:28:31;;;;;;;4.80;3.72;;;23.20;94.20;;;;;;5007231;28;20912;-65
2022/08/01 08:30:56;;;;;;;8.43;3.90;;;23.20;94.20;;;;;;5006982;28;20103;-65
2022/08/01 08:33:22;;;;;;;4.75;3.30;;;23.20;94.10;;;;;;5006447;28;20030;-65
2022/08/01 08:35:47;;;;;;;5.82;3.75;;;23.30;94.00;;;;;;5014608;28;20014;-65
2022/08/01 08:38:13;;;;;;;3.92;3.25;;;23.30;94.00;;;;;;5011941;28;20464;-65
2022/08/01 08:40:39;;;;;;;4.22;3.30;;;23.40;94.10;;;;;;5007722;28;20040;-66
2022/08/01 08:43:05;;;;;;;7.97;3.53;;;23.40;93.90;;;;;;5016347;28;20442;-66
2022/08/01 08:45:31;;;;;;;7.70;3.83;;;23.30;93.80;;;;;;5023864;28;20034;-66
2022/08/01 08:47:58;;;;;;;5.10;3.10;;;23.40;93.80;;;;;;5005928;28;20084;-66
2022/08/01 08:50:25;;;;;;;3.92;3.40;;;23.40;93.70;;;;;;5011485;28;20036;-66
2022/08/01 08:52:54;;;;;;;3.45;2.95;;;23.60;93.80;;;;;;5015687;28;20054;-66
2022/08/01 08:55:20;;;;;;;4.40;3.33;;;23.70;93.40;;;;;;5013153;28;20036;-67
2022/08/01 08:57:47;;;;;;;6.30;4.13;;;23.90;93.20;;;;;;5011677;28;20497;-66
2022/08/01 09:00:13;;;;;;;5.00;2.95;;;23.90;92.90;;;;;;5012945;28;20037;-66
2022/08/01 09:02:46;;;;;;;4.95;3.50;;;24.00;92.80;;;;;;5012214;28;20117;-65
2022/08/01 09:05:12;;;;;;;4.88;3.75;;;24.00;92.60;;;;;;5013533;28;20056;-66
2022/08/01 09:07:38;;;;;;;4.70;3.08;;;23.90;92.50;;;;;;5011974;28;20588;-66
2022/08/01 09:10:08;;;;;;;4.93;2.97;;;23.90;92.50;;;;;;5014502;28;20029;-66
2022/08/01 09:12:36;;;;;;;4.43;2.85;;;24.00;92.40;;;;;;5012086;28;20041;-66
2022/08/01 09:15:01;;;;;;;4.40;2.50;;;24.00;92.60;;;;;;5014193;28;20029;-66
2022/08/01 09:17:27;;;;;;;2.92;2.13;;;24.10;92.40;;;;;;5013185;28;20022;-66
2022/08/01 09:19:55;;;;;;;3.50;2.03;;;24.20;92.00;;;;;;5013898;28;20113;-66
2022/08/01 09:22:23;;;;;;;4.15;2.65;;;24.20;91.60;;;;;;5009899;28;20030;-66
2022/08/01 09:24:58;;;;;;;3.10;2.00;;;24.30;91.50;;;;;;5013046;28;20034;-66
2022/08/01 09:27:25;;;;;;;6.38;3.25;;;24.20;91.40;;;;;;5011961;28;20096;-66
2022/08/01 09:29:52;;;;;;;5.68;2.50;;;24.20;91.40;;;;;;5013696;28;20056;-64
2022/08/01 09:32:19;;;;;;;3.22;2.28;;;24.20;91.30;;;;;;5009805;28;20080;-66
2022/08/01 09:34:46;;;;;;;3.10;1.98;;;24.20;91.10;;;;;;5013887;28;20033;-66
2022/08/01 09:37:13;;;;;;;2.28;1.63;;;24.20;91.00;;;;;;5012495;28;20057;-66
2022/08/01 09:39:42;;;;;;;3.20;2.00;;;24.20;91.00;;;;;;5013393;28;20034;-66
2022/08/01 09:42:20;;;;;;;3.30;1.60;;;24.20;91.20;;;;;;5011508;28;20109;-66
2022/08/01 09:44:47;;;;;;;3.08;2.22;;;24.20;91.20;;;;;;5009266;28;20027;-66
2022/08/01 09:47:13;;;;;;;2.58;1.95;;;24.20;91.10;;;;;;5005766;28;20029;-66
2022/08/01 09:49:40;;;;;;;2.03;1.75;;;24.30;91.10;;;;;;5013369;28;20036;-66
2022/08/01 09:52:17;;;;;;;2.92;2.10;;;24.30;91.00;;;;;;5011000;28;20386;-66
2022/08/01 09:54:51;;;;;;;2.55;1.88;;;24.30;90.80;;;;;;5009482;28;20029;-66
2022/08/01 09:57:18;;;;;;;5.07;1.85;;;24.30;90.80;;;;;;5005452;28;20026;-66
2022/08/01 09:59:46;;;;;;;2.20;1.80;;;24.30;90.80;;;;;;5007699;28;20084;-66
2022/08/01 10:02:15;;;;;;;2.88;2.10;;;24.30;90.80;;;;;;5004405;28;20060;-66
2022/08/01 10:04:51;;;;;;;2.35;1.80;;;24.20;90.80;;;;;;5002957;28;20037;-66
2022/08/01 10:07:18;;;;;;;3.83;1.90;;;24.20;90.80;;;;;;5009897;28;20044;-66
2022/08/01 10:09:44;;;;;;;2.45;2.10;;;24.20;90.90;;;;;;5007664;28;20026;-66
2022/08/01 10:12:16;;;;;;;3.35;2.30;;;24.10;91.00;;;;;;5009717;28;20054;-66
2022/08/01 10:14:47;;;;;;;4.85;2.22;;;24.10;91.10;;;;;;5005506;28;20060;-66
2022/08/01 10:17:16;;;;;;;4.47;2.10;;;24.10;91.20;;;;;;5004657;28;20080;-66
2022/08/01 10:19:43;;;;;;;3.63;2.15;;;24.10;91.20;;;;;;5015607;28;20096;-66
2022/08/01 10:22:10;;;;;;;6.90;2.63;;;24.20;91.20;;;;;;5017279;28;20109;-66
2022/08/01 10:24:39;;;;;;;2.53;1.70;;;24.20;91.00;;;;;;5011910;28;20030;-66
2022/08/01 10:27:10;;;;;;;3.33;2.30;;;24.30;90.90;;;;;;4999247;28;20384;-65
2022/08/01 10:29:57;;;;;;;3.65;2.58;;;24.40;90.80;;;;;;5007443;28;20038;-65
2022/08/01 10:32:23;;;;;;;5.43;2.40;;;24.50;90.60;;;;;;5009887;28;20532;-65
2022/08/01 10:34:52;;;;;;;4.07;2.22;;;24.50;90.60;;;;;;5010685;28;20038;-64
2022/08/01 10:37:18;;;;;;;2.72;2.00;;;24.50;90.60;;;;;;5007327;28;20029;-65
2022/08/01 10:39:44;;;;;;;3.28;1.83;;;24.50;90.50;;;;;;5010408;28;20503;-65
2022/08/01 10:42:11;;;;;;;2.60;2.00;;;24.60;90.40;;;;;;5011618;28;20044;-66
2022/08/01 10:44:37;;;;;;;3.35;1.90;;;24.60;90.40;;;;;;5004416;28;20052;-66
2022/08/01 10:47:06;;;;;;;3.72;1.77;;;24.60;90.20;;;;;;5010943;28;20436;-66
2022/08/01 10:49:36;;;;;;;3.85;1.80;;;24.60;90.30;;;;;;4999987;28;20066;-66
2022/08/01 10:52:02;;;;;;;3.13;1.70;;;24.60;90.20;;;;;;5008148;28;20038;-65
2022/08/01 10:54:27;;;;;;;2.08;1.50;;;24.60;90.30;;;;;;5002423;28;20441;-65
2022/08/01 10:56:56;;;;;;;5.03;2.28;;;24.60;90.20;;;;;;5011557;28;20036;-65
2022/08/01 10:59:27;;;;;;;2.25;1.70;;;24.60;90.30;;;;;;5009503;28;20393;-65
2022/08/01 11:02:01;;;;;;;3.55;1.95;;;24.60;90.40;;;;;;5011052;28;20408;-65
2022/08/01 11:04:40;;;;;;;3.00;2.22;;;24.60;90.20;;;;;;5010452;28;20080;-66
2022/08/01 11:07:08;;;;;;;2.60;1.40;;;24.50;90.20;;;;;;5009871;28;20060;-65
2022/08/01 11:09:42;;;;;;;3.08;1.67;;;24.40;90.30;;;;;;5009453;28;20022;-66
2022/08/01 11:12:10;;;;;;;1.98;1.58;;;24.40;90.30;;;;;;5009584;28;20469;-65
2022/08/01 11:14:58;;;;;;;2.85;1.33;;;24.40;90.50;;;;;;5010143;28;20030;-65
2022/08/01 11:17:35;;;;;;;3.40;1.75;;;24.40;90.50;;;;;;5008274;28;20064;-65
2022/08/01 11:20:04;;;;;;;3.38;1.50;;;24.50;90.40;;;;;;5011211;28;20036;-65
2022/08/01 11:22:31;;;;;;;2.58;1.80;;;24.60;90.30;;;;;;5007919;28;20376;-66
2022/08/01 11:24:57;;;;;;;2.70;1.60;;;24.70;90.30;;;;;;5012147;28;20030;-65
2022/08/01 11:27:28;;;;;;;2.42;1.73;;;24.70;90.20;;;;;;5012896;28;20030;-65
2022/08/01 11:30:09;;;;;;;2.05;1.58;;;24.70;90.20;;;;;;5011001;28;20076;-65
2022/08/01 11:32:50;;;;;;;2.40;1.58;;;24.80;90.00;;;;;;5009721;28;20379;-65
2022/08/01 11:35:17;;;;;;;2.60;1.67;;;24.70;90.10;;;;;;5011226;28;20021;-65
2022/08/01 11:37:43;;;;;;;2.60;1.52;;;24.60;90.50;;;;;;5007684;28;20381;-65
2022/08/01 11:40:27;;;;;;;2.10;1.70;;;24.30;91.50;;;;;;5011271;28;20483;-65
2022/08/01 11:43:14;;;;;;;3.42;1.90;;;24.10;92.00;;;;;;5009948;28;20432;-66
2022/08/01 11:45:50;;;;;;;2.83;1.90;;;23.90;92.30;;;;;;5008630;28;20095;-66
2022/08/01 11:48:20;;;;;;;3.42;1.88;;;23.80;92.80;;;;;;5010838;28;20432;-66
2022/08/01 11:50:46;;;;;;;2.45;1.73;;;23.70;93.10;;;;;;5010439;28;20058;-66
2022/08/01 11:53:14;;;;;;;3.70;1.58;;;23.70;93.30;;;;;;5010509;28;20053;-66
2022/08/01 11:55:50;;;;;;;2.92;1.92;;;23.70;93.40;;;;;;5009031;28;20026;-66
2022/08/01 11:58:24;;;;;;;2.40;1.70;;;23.70;93.40;;;;;;5009339;28;20449;-66
2022/08/01 12:00:54;;;;;;;2.20;1.60;;;23.80;93.20;;;;;;5010613;28;20428;-66
2022/08/01 12:03:28;;;;;;;3.70;1.60;;;23.90;93.00;;;;;;5009941;28;20423;-65
2022/08/01 12:05:54;;;;;;;2.65;1.65;;;24.00;92.70;;;;;;5004825;28;20050;-66
2022/08/01 12:08:27;;;;;;;1.98;1.40;;;24.20;92.60;;;;;;5010358;28;20026;-65
2022/08/01 12:10:53;;;;;;;4.43;1.85;;;24.30;92.30;;;;;;5007523;28;20038;-65
2022/08/01 12:13:21;;;;;;;2.50;1.60;;;24.50;92.10;;;;;;5010052;28;20338;-66
2022/08/01 12:15:47;;;;;;;2.28;1.77;;;24.70;92.10;;;;;;5004741;28;20061;-66
2022/08/01 12:18:13;;;;;;;1.92;1.42;;;24.80;91.80;;;;;;5009636;28;20033;-66
2022/08/01 12:20:43;;;;;;;2.88;1.75;;;24.90;91.10;;;;;;5009920;28;20084;-67
2022/08/01 12:23:13;;;;;;;2.00;1.30;;;25.00;91.20;;;;;;5009275;28;20030;-65
2022/08/01 12:25:40;;;;;;;1.80;1.20;;;25.20;90.90;;;;;;5010076;28;20589;-66
2022/08/01 12:28:10;;;;;;;1.35;1.08;;;25.40;90.70;;;;;;5010399;28;20473;-65
2022/08/01 12:30:36;;;;;;;2.40;1.38;;;25.50;90.40;;;;;;5009903;28;20037;-65
2022/08/01 12:33:04;;;;;;;3.28;1.52;;;25.60;90.00;;;;;;5013072;28;20038;-66
2022/08/01 12:35:30;;;;;;;1.88;1.20;;;25.60;88.90;;;;;;5014304;28;20087;-70
2022/08/01 12:37:58;;;;;;;3.10;1.35;;;25.60;88.30;;;;;;5003411;28;20456;-65
2022/08/01 12:40:30;;;;;;;1.60;1.25;;;25.60;88.30;;;;;;5005738;28;20022;-66
2022/08/01 12:42:58;;;;;;;1.33;1.20;;;25.60;88.40;;;;;;5007448;28;20037;-67
2022/08/01 12:45:39;;;;;;;1.40;1.30;;;25.70;88.30;;;;;;5007434;28;20026;-67
2022/08/01 12:48:16;;;;;;;1.80;1.27;;;25.80;87.30;;;;;;5016375;28;20025;-67
2022/08/01 12:50:46;;;;;;;2.28;1.20;;;25.80;87.00;;;;;;5024714;28;20037;-67
2022/08/01 12:53:15;;;;;;;2.30;1.35;;;25.90;87.20;;;;;;5013732;28;20041;-67
2022/08/01 12:55:50;;;;;;;2.35;1.10;;;26.00;87.20;;;;;;5012746;28;20033;-67
2022/08/01 12:58:16;;;;;;;;;;;26.20;87.40;;;;;;5014010;28;20034;-68